createdAt,value
2023-04-03T00:01:17.033Z,2.76
2023-04-03T00:03:44.298Z,2.74
2023-04-03T00:06:12.891Z,2.84
2023-04-03T00:08:41.407Z,2.86
2023-04-03T00:11:09.877Z,2.62
2023-04-03T00:13:38.261Z,2.54
2023-04-03T00:16:06.452Z,2.63
2023-04-03T00:18:33.806Z,2.61
2023-04-03T00:21:01.431Z,2.70
2023-04-03T00:23:28.609Z,2.23
2023-04-03T00:25:56.317Z,2.11
2023-04-03T00:28:23.505Z,1.80
2023-04-03T00:30:51.815Z,1.88
2023-04-03T00:33:22.548Z,1.77
2023-04-03T00:35:50.486Z,1.80
2023-04-03T00:38:18.433Z,1.90
2023-04-03T00:40:49.464Z,1.91
2023-04-03T00:43:25.225Z,1.60
2023-04-03T00:45:56.218Z,1.29
2023-04-03T00:48:45.881Z,1.03
2023-04-03T00:51:24.612Z,1.57
2023-04-03T00:53:59.475Z,1.23
2023-04-03T00:56:30.732Z,1.24
2023-04-03T00:59:12.706Z,1.65
2023-04-03T01:01:40.538Z,1.41
2023-04-03T01:04:33.671Z,1.27
2023-04-03T01:07:09.100Z,1.13
2023-04-03T01:09:37.349Z,1.16
2023-04-03T01:12:30.966Z,1.17
2023-04-03T01:15:03.570Z,1.27
2023-04-03T01:17:50.324Z,1.13
2023-04-03T01:20:32.796Z,0.86
2023-04-03T01:23:11.881Z,1.12
2023-04-03T01:25:46.125Z,1.01
2023-04-03T01:28:34.748Z,1.11
2023-04-03T01:31:20.303Z,1.05
2023-04-03T01:33:48.181Z,0.71
2023-04-03T01:36:21.662Z,1.02
2023-04-03T01:38:49.816Z,1.32
2023-04-03T01:41:17.976Z,0.61
2023-04-03T01:43:45.176Z,0.84
2023-04-03T01:46:12.496Z,0.94
2023-04-03T01:48:39.828Z,0.87
2023-04-03T01:51:07.005Z,0.86
2023-04-03T01:53:34.155Z,0.81
2023-04-03T01:56:01.368Z,0.86
2023-04-03T01:58:28.536Z,0.67
2023-04-03T02:00:55.841Z,0.68
2023-04-03T02:03:23.220Z,0.68
2023-04-03T02:05:51.052Z,0.31
2023-04-03T02:08:21.540Z,0.58
2023-04-03T02:10:50.365Z,0.73
2023-04-03T02:13:18.892Z,0.70
2023-04-03T02:15:46.942Z,0.70
2023-04-03T02:18:14.691Z,0.07
2023-04-03T02:20:42.012Z,0.27
2023-04-03T02:23:09.426Z,0.56
2023-04-03T02:25:38.604Z,0.93
2023-04-03T02:28:06.712Z,0.79
2023-04-03T02:30:34.211Z,0.33
2023-04-03T02:33:01.418Z,0.26
2023-04-03T02:35:28.712Z,0.39
2023-04-03T02:37:56.641Z,0.77
2023-04-03T02:40:23.786Z,0.41
2023-04-03T02:42:50.992Z,0.53
2023-04-03T02:45:18.123Z,0.76
2023-04-03T02:47:45.326Z,0.41
2023-04-03T02:50:12.487Z,0.51
2023-04-03T02:52:39.596Z,0.71
2023-04-03T02:55:07.787Z,0.38
2023-04-03T02:57:34.978Z,0.30
2023-04-03T03:00:02.759Z,0.34
2023-04-03T03:02:29.925Z,0.35
2023-04-03T03:04:57.212Z,0.22
2023-04-03T03:07:24.418Z,0.49
2023-04-03T03:09:51.544Z,0.84
2023-04-03T03:12:22.560Z,0.34
2023-04-03T03:14:49.903Z,0.14
2023-04-03T03:17:17.860Z,0.23
2023-04-03T03:19:46.643Z,0.32
2023-04-03T03:22:13.888Z,0.03
2023-04-03T03:24:41.088Z,0.06
2023-04-03T03:27:08.278Z,0.28
2023-04-03T03:29:35.461Z,0.17
2023-04-03T03:32:02.589Z,0.34
2023-04-03T03:34:29.727Z,0.17
2023-04-03T03:36:58.926Z,-0.13
2023-04-03T03:39:26.477Z,0.13
2023-04-03T03:41:54.469Z,-0.04
2023-04-03T03:44:22.497Z,0.25
2023-04-03T03:46:49.613Z,0.23
2023-04-03T03:49:16.890Z,0.11
2023-04-03T03:51:44.016Z,0.44
2023-04-03T03:54:11.452Z,0.29
2023-04-03T03:56:38.588Z,0.12
2023-04-03T03:59:06.448Z,0.72
2023-04-03T04:01:34.168Z,0.59
2023-04-03T04:04:01.400Z,0.67
2023-04-03T04:06:28.711Z,0.63
2023-04-03T04:08:55.876Z,0.78
2023-04-03T04:11:23.221Z,0.40
2023-04-03T04:13:50.575Z,0.90
2023-04-03T04:16:17.780Z,0.49
2023-04-03T04:18:44.941Z,0.25
2023-04-03T04:21:12.064Z,0.26
2023-04-03T04:23:39.701Z,0.80
2023-04-03T04:26:06.856Z,0.76
2023-04-03T04:28:33.999Z,0.97
2023-04-03T04:31:01.244Z,0.44
2023-04-03T04:33:28.464Z,0.30
2023-04-03T04:35:57.205Z,0.26
2023-04-03T04:38:24.375Z,0.17
2023-04-03T04:40:51.657Z,0.72
2023-04-03T04:43:19.018Z,0.08
2023-04-03T04:45:46.249Z,0.14
2023-04-03T04:48:13.472Z,-0.02
2023-04-03T04:50:40.760Z,-0.07
2023-04-03T04:53:07.945Z,-0.12
2023-04-03T04:55:35.237Z,0.17
2023-04-03T04:58:02.607Z,0.25
2023-04-03T05:00:29.756Z,0.26
2023-04-03T05:02:56.929Z,0.05
2023-04-03T05:05:24.245Z,0.04
2023-04-03T05:07:51.393Z,0.00
2023-04-03T05:10:18.625Z,-0.19
2023-04-03T05:12:45.802Z,-0.23
2023-04-03T05:15:13.153Z,-0.38
2023-04-03T05:17:40.375Z,-0.23
2023-04-03T05:20:09.517Z,-0.10
2023-04-03T05:22:36.667Z,-0.37
2023-04-03T05:25:04.767Z,-0.22
2023-04-03T05:27:32.119Z,-0.17
2023-04-03T05:30:00.219Z,-0.09
2023-04-03T05:32:28.600Z,0.25
2023-04-03T05:34:55.877Z,-0.09
2023-04-03T05:37:23.103Z,-0.12
2023-04-03T05:39:50.557Z,-0.19
2023-04-03T05:42:17.777Z,0.09
2023-04-03T05:44:47.005Z,0.10
2023-04-03T05:47:14.373Z,0.28
2023-04-03T05:49:41.905Z,0.88
2023-04-03T05:52:27.666Z,1.28
2023-04-03T05:54:55.772Z,1.30
2023-04-03T05:57:23.369Z,2.42
2023-04-03T05:59:51.448Z,2.87
2023-04-03T06:02:22.298Z,2.64
2023-04-03T06:04:50.270Z,2.98
2023-04-03T06:07:22.105Z,2.57
2023-04-03T06:09:52.206Z,2.87
2023-04-03T06:12:20.195Z,4.13
2023-04-03T06:14:47.507Z,4.87
2023-04-03T06:17:16.907Z,3.62
2023-04-03T06:19:45.889Z,3.37
2023-04-03T06:22:13.926Z,3.94
2023-04-03T06:24:41.243Z,3.54
2023-04-03T06:27:08.747Z,3.60
2023-04-03T06:29:36.023Z,3.98
2023-04-03T06:32:03.275Z,4.39
2023-04-03T06:34:30.425Z,4.85
2023-04-03T06:36:58.078Z,5.53
2023-04-03T06:39:25.361Z,4.29
2023-04-03T06:41:52.917Z,5.63
2023-04-03T06:44:20.345Z,5.36
2023-04-03T06:46:47.772Z,6.03
2023-04-03T06:49:15.896Z,6.12
2023-04-03T06:51:43.094Z,6.43
2023-04-03T06:54:10.389Z,5.52
2023-04-03T06:56:38.153Z,5.51
2023-04-03T06:59:05.658Z,6.29
2023-04-03T07:01:33.089Z,5.94
2023-04-03T07:04:00.430Z,6.63
2023-04-03T07:06:28.036Z,7.16
2023-04-03T07:08:56.350Z,6.22
2023-04-03T07:11:23.900Z,6.66
2023-04-03T07:13:51.452Z,6.13
2023-04-03T07:16:19.224Z,6.75
2023-04-03T07:18:47.515Z,7.31
2023-04-03T07:21:14.941Z,8.57
2023-04-03T07:23:42.090Z,8.34
2023-04-03T07:26:10.129Z,9.09
2023-04-03T07:28:37.810Z,8.88
2023-04-03T07:31:14.252Z,8.24
2023-04-03T07:33:42.293Z,7.91
2023-04-03T07:36:15.214Z,8.06
2023-04-03T07:38:42.439Z,8.15
2023-04-03T07:41:16.356Z,9.11
2023-04-03T07:43:43.613Z,9.38
2023-04-03T07:46:11.758Z,8.80
2023-04-03T07:48:39.075Z,8.55
2023-04-03T07:51:06.504Z,9.93
2023-04-03T07:53:34.144Z,10.06
2023-04-03T07:56:03.568Z,11.00
2023-04-03T07:58:32.029Z,12.47
2023-04-03T08:00:59.146Z,11.23
2023-04-03T08:03:26.573Z,10.48
2023-04-03T08:05:54.497Z,11.13
2023-04-03T08:08:23.605Z,11.10
2023-04-03T08:10:53.954Z,10.03
2023-04-03T08:13:22.865Z,11.03
2023-04-03T08:15:50.343Z,12.99
2023-04-03T08:18:19.308Z,12.67
2023-04-03T08:20:46.464Z,10.96
2023-04-03T08:23:14.846Z,10.89
2023-04-03T08:25:43.602Z,11.71
2023-04-03T08:28:13.197Z,12.26
2023-04-03T08:30:43.184Z,11.85
2023-04-03T08:33:11.430Z,11.49
2023-04-03T08:35:42.788Z,11.31
2023-04-03T08:38:11.497Z,11.02
2023-04-03T08:40:41.639Z,10.71
2023-04-03T08:43:36.837Z,12.31
2023-04-03T08:46:12.573Z,11.25
2023-04-03T08:48:44.141Z,12.72
2023-04-03T08:51:22.081Z,12.48
2023-04-03T08:54:09.116Z,13.10
2023-04-03T08:56:37.060Z,12.09
2023-04-03T08:59:27.221Z,12.97
2023-04-03T09:01:57.096Z,12.80
2023-04-03T09:04:27.733Z,13.68
2023-04-03T09:07:04.808Z,13.85
2023-04-03T09:09:43.112Z,11.75
2023-04-03T09:12:38.131Z,13.21
2023-04-03T09:15:37.938Z,11.70
2023-04-03T09:18:20.573Z,11.59
2023-04-03T09:21:04.510Z,12.99
2023-04-03T09:23:59.285Z,14.05
2023-04-03T09:27:03.347Z,12.87
2023-04-03T09:29:31.503Z,13.50
2023-04-03T09:32:13.295Z,11.75
2023-04-03T09:34:43.895Z,11.85
2023-04-03T09:37:36.210Z,13.33
2023-04-03T09:40:05.314Z,10.66
2023-04-03T09:42:33.420Z,9.31
2023-04-03T09:45:03.997Z,9.36
2023-04-03T09:47:34.813Z,8.92
2023-04-03T09:50:18.223Z,9.67
2023-04-03T09:52:49.517Z,8.65
2023-04-03T09:55:29.938Z,8.98
2023-04-03T09:58:01.552Z,9.91
2023-04-03T10:00:37.487Z,10.55
2023-04-03T10:03:06.629Z,9.24
2023-04-03T10:05:40.781Z,9.52
2023-04-03T10:08:17.418Z,9.75
2023-04-03T10:10:48.732Z,9.63
2023-04-03T10:13:22.121Z,10.23
2023-04-03T10:16:04.154Z,10.71
2023-04-03T10:19:21.862Z,10.82
2023-04-03T10:22:01.574Z,11.43
2023-04-03T10:24:54.492Z,10.33
2023-04-03T10:27:41.327Z,9.49
2023-04-03T10:30:35.369Z,9.10
2023-04-03T10:33:43.067Z,9.61
2023-04-03T10:36:29.684Z,9.28
2023-04-03T10:39:17.242Z,8.76
2023-04-03T10:42:29.405Z,9.93
2023-04-03T10:45:19.707Z,9.51
2023-04-03T10:48:29.352Z,9.04
2023-04-03T10:51:23.293Z,9.12
2023-04-03T10:54:08.467Z,9.44
2023-04-03T10:56:46.192Z,9.18
2023-04-03T10:59:42.682Z,8.70
2023-04-03T11:02:27.421Z,8.79
2023-04-03T11:05:06.104Z,8.38
2023-04-03T11:07:53.795Z,8.35
2023-04-03T11:10:45.806Z,8.32
2023-04-03T11:13:20.899Z,8.15
2023-04-03T11:15:48.880Z,8.15
2023-04-03T11:18:29.732Z,9.24
2023-04-03T11:21:16.962Z,9.61
2023-04-03T11:23:49.994Z,9.80
2023-04-03T11:26:26.321Z,8.54
2023-04-03T11:29:08.951Z,9.73
2023-04-03T11:32:09.654Z,10.70
2023-04-03T11:34:52.111Z,10.76
2023-04-03T11:37:48.936Z,9.51
2023-04-03T11:40:16.342Z,10.65
2023-04-03T11:42:49.942Z,10.43
2023-04-03T11:45:23.063Z,9.69
2023-04-03T11:47:51.092Z,10.59
2023-04-03T11:50:43.231Z,9.84
2023-04-03T11:53:13.093Z,10.63
2023-04-03T11:55:49.386Z,10.88
2023-04-03T11:58:28.742Z,11.55
2023-04-03T12:00:57.189Z,10.37
2023-04-03T12:03:25.003Z,9.47
2023-04-03T12:06:07.103Z,9.78
2023-04-03T12:08:34.200Z,10.14
2023-04-03T12:11:13.929Z,10.66
2023-04-03T12:13:50.020Z,9.62
2023-04-03T12:16:31.402Z,10.51
2023-04-03T12:19:16.951Z,9.59
2023-04-03T12:21:50.077Z,9.48
2023-04-03T12:24:17.142Z,9.99
2023-04-03T12:26:52.619Z,10.37
2023-04-03T12:29:34.707Z,10.35
2023-04-03T12:32:11.464Z,10.88
2023-04-03T12:35:44.249Z,10.68
2023-04-03T12:38:30.885Z,10.50
2023-04-03T12:41:24.665Z,9.18
2023-04-03T12:44:27.877Z,9.59
2023-04-03T12:46:55.529Z,9.28
2023-04-03T12:49:39.995Z,9.42
2023-04-03T12:52:33.388Z,10.05
2023-04-03T12:55:05.169Z,9.85
2023-04-03T12:57:33.405Z,10.24
2023-04-03T13:00:01.026Z,10.40
2023-04-03T13:02:34.678Z,9.20
2023-04-03T13:05:17.470Z,8.72
2023-04-03T13:07:49.245Z,9.85
2023-04-03T13:10:19.223Z,9.76
2023-04-03T13:13:08.636Z,9.79
2023-04-03T13:15:46.723Z,9.58
2023-04-03T13:18:38.198Z,9.20
2023-04-03T13:21:25.999Z,8.58
2023-04-03T13:24:13.889Z,9.00
2023-04-03T13:26:44.129Z,9.19
2023-04-03T13:29:30.944Z,9.68
2023-04-03T13:32:02.373Z,9.10
2023-04-03T13:34:44.688Z,9.58
2023-04-03T13:37:27.247Z,10.70
2023-04-03T13:40:10.175Z,10.02
2023-04-03T13:42:44.129Z,9.55
2023-04-03T13:45:14.027Z,9.26
2023-04-03T13:47:45.057Z,10.52
2023-04-03T13:50:12.088Z,10.04
2023-04-03T13:53:00.936Z,9.73
2023-04-03T13:55:36.339Z,9.05
2023-04-03T13:58:09.568Z,9.16
2023-04-03T14:00:47.916Z,8.45
2023-04-03T14:03:44.530Z,9.49
2023-04-03T14:06:16.505Z,9.91
2023-04-03T14:08:46.213Z,9.54
2023-04-03T14:11:24.614Z,9.45
2023-04-03T14:13:52.218Z,9.21
2023-04-03T14:16:24.489Z,8.41
2023-04-03T14:18:52.318Z,8.17
2023-04-03T14:21:22.133Z,8.49
2023-04-03T14:23:50.272Z,8.75
2023-04-03T14:26:22.068Z,8.58
2023-04-03T14:28:54.205Z,9.06
2023-04-03T14:31:22.605Z,8.68
2023-04-03T14:33:50.650Z,8.76
2023-04-03T14:36:29.482Z,8.01
2023-04-03T14:38:59.211Z,8.40
2023-04-03T14:41:27.863Z,8.15
2023-04-03T14:43:55.320Z,8.01
2023-04-03T14:46:42.987Z,8.60
2023-04-03T14:49:30.631Z,8.84
2023-04-03T14:51:58.884Z,9.15
2023-04-03T14:54:28.383Z,8.76
2023-04-03T14:56:58.618Z,8.59
2023-04-03T14:59:27.392Z,8.58
2023-04-03T15:01:54.634Z,8.55
2023-04-03T15:04:22.212Z,8.21
2023-04-03T15:06:50.341Z,7.86
2023-04-03T15:09:24.030Z,7.82
2023-04-03T15:11:53.549Z,8.00
2023-04-03T15:14:35.922Z,7.88
2023-04-03T15:17:17.625Z,7.76
2023-04-03T15:19:45.346Z,8.24
2023-04-03T15:22:19.670Z,8.13
2023-04-03T15:24:47.477Z,8.78
2023-04-03T15:27:16.206Z,8.32
2023-04-03T15:29:45.194Z,9.04
2023-04-03T15:32:14.324Z,8.81
2023-04-03T15:34:41.844Z,8.46
2023-04-03T15:37:09.094Z,8.03
2023-04-03T15:39:36.309Z,7.72
2023-04-03T15:42:07.230Z,7.68
2023-04-03T15:44:35.475Z,7.65
2023-04-03T15:47:03.795Z,8.36
2023-04-03T15:49:34.007Z,8.45
2023-04-03T15:52:01.711Z,8.94
2023-04-03T15:54:30.398Z,8.58
2023-04-03T15:56:58.033Z,8.42
2023-04-03T15:59:25.222Z,8.27
2023-04-03T16:01:53.497Z,7.87
2023-04-03T16:04:21.856Z,7.80
2023-04-03T16:06:51.035Z,7.81
2023-04-03T16:09:18.235Z,7.69
2023-04-03T16:11:45.387Z,7.45
2023-04-03T16:14:12.738Z,7.60
2023-04-03T16:16:40.673Z,7.57
2023-04-03T16:19:11.506Z,7.97
2023-04-03T16:21:38.956Z,7.59
2023-04-03T16:24:06.731Z,7.96
2023-04-03T16:26:34.320Z,7.83
2023-04-03T16:29:01.752Z,8.02
2023-04-03T16:31:29.307Z,8.04
2023-04-03T16:33:57.332Z,7.76
2023-04-03T16:36:26.658Z,7.40
2023-04-03T16:38:54.047Z,7.57
2023-04-03T16:41:21.241Z,7.36
2023-04-03T16:43:48.674Z,7.14
2023-04-03T16:46:16.170Z,7.27
2023-04-03T16:48:43.435Z,7.39
2023-04-03T16:51:10.610Z,7.41
2023-04-03T16:53:37.817Z,7.19
2023-04-03T16:56:05.351Z,7.47
2023-04-03T16:58:32.558Z,7.36
2023-04-03T17:00:59.776Z,7.37
2023-04-03T17:03:28.848Z,7.25
2023-04-03T17:05:56.117Z,7.33
2023-04-03T17:08:23.242Z,7.36
2023-04-03T17:10:52.746Z,6.97
2023-04-03T17:13:20.019Z,6.67
2023-04-03T17:15:47.388Z,6.87
2023-04-03T17:18:14.874Z,7.21
2023-04-03T17:20:42.081Z,6.91
2023-04-03T17:23:09.359Z,6.93
2023-04-03T17:25:36.807Z,6.68
2023-04-03T17:28:04.137Z,7.21
2023-04-03T17:30:31.295Z,6.83
2023-04-03T17:32:58.459Z,6.95
2023-04-03T17:35:25.609Z,7.04
2023-04-03T17:37:53.570Z,7.08
2023-04-03T17:40:20.906Z,7.09
2023-04-03T17:42:48.081Z,6.86
2023-04-03T17:45:15.367Z,6.55
2023-04-03T17:47:42.599Z,6.54
2023-04-03T17:50:11.275Z,6.34
2023-04-03T17:52:38.455Z,6.30
2023-04-03T17:55:06.036Z,6.16
2023-04-03T17:57:33.215Z,6.32
2023-04-03T18:00:00.516Z,6.20
2023-04-03T18:02:27.725Z,6.04
2023-04-03T18:04:54.882Z,6.11
2023-04-03T18:07:22.058Z,6.41
2023-04-03T18:09:52.363Z,6.40
2023-04-03T18:12:20.229Z,6.60
2023-04-03T18:14:48.169Z,6.41
2023-04-03T18:17:15.856Z,6.37
2023-04-03T18:19:43.023Z,6.44
2023-04-03T18:22:19.131Z,6.30
2023-04-03T18:24:46.944Z,6.14
2023-04-03T18:27:18.561Z,6.73
2023-04-03T18:29:52.639Z,6.72
2023-04-03T18:32:23.436Z,6.55
2023-04-03T18:34:50.705Z,6.48
2023-04-03T18:37:18.889Z,6.56
2023-04-03T18:39:46.307Z,6.17
2023-04-03T18:42:18.426Z,6.23
2023-04-03T18:44:52.455Z,6.32
2023-04-03T18:47:19.838Z,6.22
2023-04-03T18:49:47.066Z,6.05
2023-04-03T18:52:14.568Z,6.24
2023-04-03T18:54:43.246Z,6.17
2023-04-03T18:57:10.477Z,6.23
2023-04-03T18:59:38.584Z,6.06
2023-04-03T19:02:08.672Z,6.02
2023-04-03T19:04:36.566Z,5.88
2023-04-03T19:07:06.222Z,5.86
2023-04-03T19:09:34.400Z,5.84
2023-04-03T19:12:02.072Z,5.89
2023-04-03T19:14:29.190Z,5.89
2023-04-03T19:16:56.404Z,6.03
2023-04-03T19:19:23.656Z,5.94
2023-04-03T19:21:50.899Z,5.78
2023-04-03T19:24:18.673Z,5.89
2023-04-03T19:26:46.016Z,5.70
2023-04-03T19:29:13.676Z,5.42
2023-04-03T19:31:40.884Z,5.62
2023-04-03T19:34:08.282Z,5.32
2023-04-03T19:36:36.948Z,5.42
2023-04-03T19:39:06.021Z,5.45
2023-04-03T19:41:37.016Z,5.47
2023-04-03T19:44:07.145Z,5.77
2023-04-03T19:46:35.362Z,5.51
2023-04-03T19:49:02.830Z,5.37
2023-04-03T19:51:30.696Z,5.62
2023-04-03T19:53:57.860Z,5.60
2023-04-03T19:56:27.012Z,5.78
2023-04-03T19:58:54.458Z,5.61
2023-04-03T20:01:27.716Z,5.63
2023-04-03T20:03:55.015Z,5.73
2023-04-03T20:06:22.390Z,5.30
2023-04-03T20:08:49.622Z,5.67
2023-04-03T20:11:17.062Z,4.90
2023-04-03T20:13:44.249Z,5.00
2023-04-03T20:16:11.538Z,4.75
2023-04-03T20:18:39.502Z,4.75
2023-04-03T20:21:07.802Z,4.84
2023-04-03T20:23:37.193Z,4.20
2023-04-03T20:26:11.223Z,4.68
2023-04-03T20:28:42.916Z,4.23
2023-04-03T20:31:13.593Z,4.87
2023-04-03T20:33:40.883Z,4.30
2023-04-03T20:36:08.406Z,4.56
2023-04-03T20:38:35.829Z,4.85
2023-04-03T20:41:03.031Z,4.80
2023-04-03T20:43:30.749Z,4.39
2023-04-03T20:46:03.006Z,4.60
2023-04-03T20:48:31.218Z,4.75
2023-04-03T20:50:58.875Z,4.71
2023-04-03T20:53:27.396Z,4.12
2023-04-03T20:56:04.089Z,4.67
2023-04-03T20:58:33.238Z,4.35
2023-04-03T21:01:04.440Z,4.21
2023-04-03T21:03:32.051Z,4.24
2023-04-03T21:06:02.948Z,4.48
2023-04-03T21:09:27.274Z,3.75
2023-04-03T21:12:50.916Z,3.55
2023-04-03T21:15:49.108Z,3.76
2023-04-03T21:18:33.340Z,3.81
2023-04-03T21:21:02.896Z,3.32
2023-04-03T21:23:32.057Z,3.45
2023-04-03T21:26:03.034Z,3.65
2023-04-03T21:28:30.574Z,3.50
2023-04-03T21:30:57.726Z,3.75
2023-04-03T21:33:25.036Z,3.62
2023-04-03T21:35:57.664Z,3.46
2023-04-03T21:38:27.268Z,3.18
2023-04-03T21:41:00.840Z,3.76
2023-04-03T21:43:28.261Z,3.59
2023-04-03T21:45:59.769Z,3.73
2023-04-03T21:48:30.943Z,3.76
2023-04-03T21:51:05.275Z,3.68
2023-04-03T21:53:36.019Z,3.30
2023-04-03T21:56:03.209Z,2.76
2023-04-03T21:58:32.252Z,3.05
2023-04-03T22:01:14.053Z,3.68
2023-04-03T22:03:42.821Z,3.74
2023-04-03T22:06:12.375Z,3.35
2023-04-03T22:08:40.337Z,3.41
2023-04-03T22:11:12.411Z,3.66
2023-04-03T22:13:39.870Z,3.09
2023-04-03T22:16:08.131Z,3.40
2023-04-03T22:18:36.066Z,3.44
2023-04-03T22:21:03.378Z,3.38
2023-04-03T22:23:30.587Z,2.84
2023-04-03T22:26:08.305Z,2.80
2023-04-03T22:28:39.656Z,2.45
2023-04-03T22:31:07.940Z,2.21
2023-04-03T22:33:36.506Z,2.92
2023-04-03T22:36:05.566Z,2.58
2023-04-03T22:38:33.806Z,2.64
2023-04-03T22:41:03.946Z,2.64
2023-04-03T22:43:33.837Z,2.15
2023-04-03T22:46:03.217Z,2.39
2023-04-03T22:48:33.575Z,2.49
2023-04-03T22:51:01.443Z,2.17
2023-04-03T22:53:28.818Z,2.29
2023-04-03T22:56:00.995Z,2.74
2023-04-03T22:58:29.298Z,1.99
2023-04-03T23:01:06.674Z,1.81
2023-04-03T23:03:39.270Z,2.02
2023-04-03T23:06:09.004Z,2.27
2023-04-03T23:08:39.046Z,2.29
2023-04-03T23:11:07.284Z,2.74
2023-04-03T23:13:35.362Z,2.35
2023-04-03T23:16:03.789Z,2.31
2023-04-03T23:18:32.724Z,2.07
2023-04-03T23:21:03.397Z,1.87
2023-04-03T23:23:31.153Z,2.09
2023-04-03T23:26:03.336Z,2.16
2023-04-03T23:28:31.129Z,1.85
2023-04-03T23:31:01.261Z,2.02
2023-04-03T23:33:30.582Z,1.85
2023-04-03T23:35:59.162Z,1.86
2023-04-03T23:38:26.444Z,1.55
2023-04-03T23:40:53.562Z,1.65
2023-04-03T23:43:21.047Z,1.60
2023-04-03T23:45:48.229Z,1.67
2023-04-03T23:48:15.493Z,1.50
2023-04-03T23:50:44.024Z,1.28
2023-04-03T23:53:13.446Z,1.56
2023-04-03T23:55:41.880Z,1.10
2023-04-03T23:58:09.090Z,1.05
